Time;durP1;ratioP1;P1;durP2;ratioP2;P2;SDS_P1;SDS_P2;PMS_P1;PMS_P2;Temp;Humidity;BMP_temperature;BMP_pressure;BME280_temperature;BME280_humidity;BME280_pressure;Samples;Min_cycle;Max_cycle;Signal;HPM_P1;HPM_P2
2023/02/20 00:00:58;;;;;;;19.40;9.90;;;;;;;1.08;100.00;99589.81;109684;1251;60144;-83
2023/02/20 00:03:26;;;;;;;18.60;9.80;;;;;;;1.07;100.00;99589.66;109692;1251;65105;-83
2023/02/20 00:05:53;;;;;;;23.10;11.30;;;;;;;1.07;100.00;99587.05;109630;1251;58988;-83
2023/02/20 00:08:19;;;;;;;27.50;11.70;;;;;;;1.07;100.00;99586.70;109417;1251;59083;-81
2023/02/20 00:10:46;;;;;;;23.20;11.40;;;;;;;1.06;100.00;99586.02;109432;1251;65010;-81
2023/02/20 00:13:13;;;;;;;23.50;12.10;;;;;;;1.06;100.00;99584.27;109693;1251;59898;-81
2023/02/20 00:15:39;;;;;;;22.40;11.40;;;;;;;1.07;100.00;99582.14;109677;1251;63784;-82
2023/02/20 00:18:06;;;;;;;23.20;12.10;;;;;;;1.08;100.00;99577.41;109678;1251;58905;-82
2023/02/20 00:20:35;;;;;;;19.20;11.00;;;;;;;1.09;100.00;99577.02;109660;1251;59089;-81
2023/02/20 00:23:01;;;;;;;16.90;9.70;;;;;;;1.11;100.00;99573.32;109670;1251;66002;-81
2023/02/20 00:25:28;;;;;;;21.80;10.80;;;;;;;1.14;100.00;99569.58;109718;1251;60044;-79
2023/02/20 00:27:55;;;;;;;18.70;11.00;;;;;;;1.17;100.00;99568.83;109678;1251;65178;-81
2023/02/20 00:30:23;;;;;;;20.30;10.40;;;;;;;1.17;100.00;99572.84;109698;1251;58939;-81
2023/02/20 00:32:52;;;;;;;21.50;10.30;;;;;;;1.19;100.00;99569.84;109662;1251;58884;-81
2023/02/20 00:35:19;;;;;;;20.40;11.00;;;;;;;1.21;100.00;99572.08;109661;1250;67029;-82
2023/02/20 00:37:47;;;;;;;20.00;10.20;;;;;;;1.21;100.00;99569.27;109718;1251;61073;-80
2023/02/20 00:40:15;;;;;;;24.70;11.20;;;;;;;1.22;100.00;99568.39;109847;1253;64225;-84
2023/02/20 00:42:42;;;;;;;19.00;10.00;;;;;;;1.23;100.00;99571.16;109761;1251;58941;-82
2023/02/20 00:45:09;;;;;;;18.10;12.40;;;;;;;1.23;100.00;99570.10;109649;1251;58865;-83
2023/02/20 00:47:36;;;;;;;25.30;12.60;;;;;;;1.24;100.00;99567.45;109699;1251;67141;-83
2023/02/20 00:50:04;;;;;;;25.70;12.50;;;;;;;1.25;100.00;99571.65;109759;1250;60165;-81
2023/02/20 00:52:32;;;;;;;22.90;11.70;;;;;;;1.25;100.00;99570.42;109593;1251;63993;-81
2023/02/20 00:54:58;;;;;;;23.10;11.50;;;;;;;1.26;100.00;99569.87;109822;1251;58753;-82
2023/02/20 00:57:25;;;;;;;22.40;11.50;;;;;;;1.26;100.00;99567.26;109777;1251;59337;-83
2023/02/20 00:59:52;;;;;;;20.60;11.20;;;;;;;1.25;100.00;99565.16;109489;1251;66069;-83
2023/02/20 01:02:19;;;;;;;30.70;12.00;;;;;;;1.25;100.00;99561.84;109716;1251;60054;-83
2023/02/20 01:04:46;;;;;;;25.30;12.40;;;;;;;1.25;100.00;99566.74;109591;1251;63983;-82
2023/02/20 01:07:12;;;;;;;24.80;10.90;;;;;;;1.24;100.00;99566.76;109639;1250;58994;-83
2023/02/20 01:09:39;;;;;;;20.30;12.30;;;;;;;1.25;100.00;99573.05;109461;1251;59081;-83
2023/02/20 01:12:06;;;;;;;20.70;10.10;;;;;;;1.25;100.00;99572.52;108951;1251;1002121;-81
2023/02/20 01:14:33;;;;;;;23.60;10.50;;;;;;;1.26;100.00;99573.72;109412;1251;61012;-82
2023/02/20 01:16:59;;;;;;;21.60;9.80;;;;;;;1.27;100.00;99573.71;109732;1251;64087;-82
2023/02/20 01:19:26;;;;;;;19.10;10.60;;;;;;;1.28;100.00;99573.50;109711;1251;58964;-83
2023/02/20 01:21:53;;;;;;;19.90;10.70;;;;;;;1.28;100.00;99574.39;109728;1251;58997;-83
2023/02/20 01:24:19;;;;;;;19.70;9.10;;;;;;;1.28;100.00;99575.41;109456;1251;67032;-83
2023/02/20 01:26:48;;;;;;;17.30;9.40;;;;;;;1.29;100.00;99568.76;109762;1250;58858;-83
2023/02/20 01:29:16;;;;;;;25.70;10.90;;;;;;;1.30;100.00;99566.29;109658;1251;65231;-83
2023/02/20 01:31:48;;;;;;;23.60;10.00;;;;;;;1.33;100.00;99565.38;109485;1251;59040;-80
2023/02/20 01:34:15;;;;;;;21.40;9.50;;;;;;;1.34;100.00;99563.41;106645;1251;1002816;-82
2023/02/20 01:36:46;;;;;;;18.40;9.30;;;;;;;1.34;100.00;99557.45;109704;1251;59297;-81
2023/02/20 01:39:17;;;;;;;15.90;9.10;;;;;;;1.35;100.00;99556.92;109709;1251;61216;-82
2023/02/20 01:41:44;;;;;;;;;;;;;;;1.36;100.00;99553.73;109624;1251;64737;-82
2023/02/20 01:44:22;;;;;;;20.80;9.10;;;;;;;1.37;100.00;99552.33;109694;1251;58934;-83
2023/02/20 01:46:55;;;;;;;18.40;8.70;;;;;;;1.38;100.00;99550.20;109379;1251;59053;-83
2023/02/20 01:49:28;;;;;;;17.50;8.00;;;;;;;1.40;100.00;99550.88;109688;1251;66785;-83
2023/02/20 01:52:06;;;;;;;14.80;8.50;;;;;;;1.41;100.00;99549.61;109675;1251;61229;-83
2023/02/20 01:54:37;;;;;;;15.40;8.30;;;;;;;1.42;100.00;99545.90;109694;1251;65511;-83
2023/02/20 01:57:07;;;;;;;19.10;7.80;;;;;;;1.43;100.00;99544.13;109649;1251;58989;-82
2023/02/20 01:59:38;;;;;;;15.00;7.80;;;;;;;1.43;100.00;99542.21;109663;1251;59017;-82
2023/02/20 02:02:06;;;;;;;12.80;8.40;;;;;;;1.43;100.00;99542.39;109704;1251;65676;-82
2023/02/20 02:04:36;;;;;;;15.80;7.70;;;;;;;1.44;100.00;99539.74;109321;1251;60069;-82
2023/02/20 02:07:03;;;;;;;18.40;9.10;;;;;;;1.45;100.00;99536.57;109660;1251;64060;-82
2023/02/20 02:09:46;;;;;;;18.80;9.10;;;;;;;1.45;100.00;99536.56;109658;1251;58980;-82
2023/02/20 02:12:13;;;;;;;19.60;8.60;;;;;;;1.45;100.00;99531.48;108144;1251;1002408;-82
2023/02/20 02:14:39;;;;;;;14.30;7.60;;;;;;;1.44;100.00;99518.71;109722;1251;66760;-82
2023/02/20 02:17:24;;;;;;;14.10;8.00;;;;;;;1.44;100.00;99507.69;109734;1251;61086;-82
2023/02/20 02:20:19;;;;;;;14.70;8.20;;;;;;;1.44;100.00;99498.77;109661;1251;65212;-82
2023/02/20 02:22:59;;;;;;;14.70;7.20;;;;;;;1.44;100.00;99492.30;109548;1251;59180;-82
2023/02/20 02:25:54;;;;;;;13.80;6.90;;;;;;;1.43;100.00;99489.69;109672;1251;58839;-82
2023/02/20 02:28:43;;;;;;;10.40;7.10;;;;;;;1.42;100.00;99483.77;109668;1251;66813;-81
2023/02/20 02:31:22;;;;;;;13.50;7.60;;;;;;;1.40;100.00;99484.52;109710;1251;60038;-82
2023/02/20 02:34:32;;;;;;;16.30;8.60;;;;;;;1.39;100.00;99481.38;109397;1251;63690;-82
2023/02/20 02:37:02;;;;;;;18.50;10.40;;;;;;;1.37;100.00;99481.06;109692;1251;58988;-82
2023/02/20 02:39:39;;;;;;;15.80;8.30;;;;;;;1.36;100.00;99481.80;109767;1251;58971;-82
2023/02/20 02:42:14;;;;;;;15.10;8.30;;;;;;;1.35;100.00;99480.78;109694;1250;67256;-81
2023/02/20 02:44:50;;;;;;;11.90;7.90;;;;;;;1.36;100.00;99474.63;109726;1251;59923;-82
2023/02/20 02:47:24;;;;;;;13.30;7.00;;;;;;;1.36;100.00;99467.63;109703;1251;63844;-82
2023/02/20 02:50:14;;;;;;;11.30;6.70;;;;;;;1.35;100.00;99460.11;109674;1251;58929;-82
2023/02/20 02:52:48;;;;;;;11.50;6.40;;;;;;;1.34;100.00;99455.22;109791;1251;59054;-83
2023/02/20 02:55:26;;;;;;;12.30;6.00;;;;;;;1.34;100.00;99459.42;109660;1253;66135;-82
2023/02/20 02:57:53;;;;;;;13.30;6.40;;;;;;;1.35;100.00;99470.79;109719;1251;60420;-83
2023/02/20 03:00:43;;;;;;;11.30;6.30;;;;;;;1.35;100.00;99478.67;109694;1251;65103;-83
2023/02/20 03:03:24;;;;;;;12.70;7.80;;;;;;;1.35;100.00;99480.24;109602;1251;58972;-83
2023/02/20 03:06:04;;;;;;;13.40;8.50;;;;;;;1.35;100.00;99481.99;109674;1251;58837;-82
2023/02/20 03:08:43;;;;;;;12.80;6.70;;;;;;;1.36;100.00;99479.36;109718;1250;66974;-81
2023/02/20 03:11:19;;;;;;;14.30;6.40;;;;;;;1.35;100.00;99477.97;109668;1250;61179;-82
2023/02/20 03:16:44;;;;;;;9.90;5.70;;;;;;;1.34;100.00;99474.30;109500;1251;58974;-81
2023/02/20 03:19:13;;;;;;;9.50;6.20;;;;;;;1.34;100.00;99471.52;109699;1251;58797;-82
2023/02/20 03:21:45;;;;;;;11.30;6.30;;;;;;;1.33;100.00;99464.70;109699;1252;66114;-82
2023/02/20 03:24:16;;;;;;;9.00;5.50;;;;;;;1.33;100.00;99456.48;109801;1251;60759;-83
2023/02/20 03:26:45;;;;;;;10.10;5.10;;;;;;;1.33;100.00;99448.95;109796;1251;63899;-81
2023/02/20 03:29:26;;;;;;;9.90;6.50;;;;;;;1.31;100.00;99434.62;109514;1251;59159;-82
2023/02/20 03:43:23;;;;;;;8.00;4.50;;;;;;;1.22;100.00;99430.09;109673;1251;58951;-83
2023/02/20 03:46:06;;;;;;;7.20;4.70;;;;;;;1.21;100.00;99427.69;109681;1251;58963;-83
2023/02/20 03:48:43;;;;;;;8.80;4.30;;;;;;;1.19;100.00;99425.80;109663;1251;65627;-81
2023/02/20 03:51:12;;;;;;;8.40;4.70;;;;;;;1.16;100.00;99431.64;109815;1251;61053;-82
2023/02/20 03:53:41;;;;;;;12.80;6.30;;;;;;;1.12;100.00;99436.96;109802;1251;63818;-81
2023/02/20 03:56:11;;;;;;;9.70;5.30;;;;;;;1.08;100.00;99443.17;109771;1251;59024;-83
2023/02/20 03:58:44;;;;;;;9.00;5.00;;;;;;;1.04;100.00;99448.34;109680;1251;58882;-82
2023/02/20 04:01:14;;;;;;;10.00;5.40;;;;;;;1.00;100.00;99451.75;109744;1251;67433;-81
2023/02/20 04:03:45;;;;;;;10.40;5.90;;;;;;;0.95;100.00;99449.41;109794;1250;59829;-82
2023/02/20 04:06:14;;;;;;;10.30;5.80;;;;;;;0.89;100.00;99443.75;109690;1251;64884;-82
2023/02/20 04:08:51;;;;;;;11.50;5.10;;;;;;;0.84;100.00;99442.46;109658;1251;58937;-83
2023/02/20 04:11:24;;;;;;;9.30;5.10;;;;;;;0.78;100.00;99436.09;109689;1251;59038;-82
2023/02/20 04:13:53;;;;;;;9.20;5.40;;;;;;;0.72;100.00;99432.20;109739;1251;65627;-82
2023/02/20 04:16:20;;;;;;;10.30;5.60;;;;;;;0.66;100.00;99429.89;109634;1250;60195;-82
2023/02/20 04:18:48;;;;;;;11.40;5.80;;;;;;;0.60;100.00;99431.91;109727;1251;64156;-82
2023/02/20 04:21:44;;;;;;;10.50;5.70;;;;;;;0.55;100.00;99430.95;109671;1251;58974;-82
2023/02/20 04:24:21;;;;;;;13.70;5.90;;;;;;;0.51;100.00;99437.88;109069;1258;59112;-83
2023/02/20 04:26:48;;;;;;;13.80;7.50;;;;;;;0.45;100.00;99435.17;109091;1258;66757;-83
2023/02/20 04:29:15;;;;;;;12.10;6.20;;;;;;;0.40;100.00;99435.27;109117;1259;61259;-83
2023/02/20 04:31:42;;;;;;;10.40;6.10;;;;;;;0.36;100.00;99432.55;109077;1257;64043;-82
2023/02/20 04:34:08;;;;;;;14.40;6.50;;;;;;;0.31;100.00;99429.66;108915;1257;59142;-83
2023/02/20 04:36:35;;;;;;;12.90;7.60;;;;;;;0.25;100.00;99423.14;109116;1257;59322;-83
2023/02/20 04:39:02;;;;;;;25.20;14.30;;;;;;;0.20;100.00;99415.70;109055;1259;66964;-81
2023/02/20 04:41:28;;;;;;;26.90;15.40;;;;;;;0.16;100.00;99410.54;108918;1260;59756;-82
2023/02/20 04:44:30;;;;;;;19.10;15.60;;;;;;;0.12;100.00;99411.50;108911;1257;64336;-82
2023/02/20 04:46:42;;;;;;;12.30;11.00;;;;;;;0.07;100.00;99403.72;109105;1258;59204;-82
2023/02/20 04:49:08;;;;;;;17.10;10.20;;;;;;;0.02;100.00;99400.84;109104;1257;59215;-81
2023/02/20 04:51:35;;;;;;;10.80;8.20;;;;;;;-0.02;100.00;99405.98;109031;1258;67068;-82
2023/02/20 04:54:02;;;;;;;11.20;8.30;;;;;;;-0.06;100.00;99406.56;109098;1259;60182;-82
2023/02/20 04:56:28;;;;;;;14.70;9.50;;;;;;;-0.09;100.00;99401.03;109125;1258;63791;-82
2023/02/20 04:58:55;;;;;;;11.30;8.90;;;;;;;-0.13;100.00;99394.46;109063;1259;59070;-82
2023/02/20 05:01:22;;;;;;;16.80;10.10;;;;;;;-0.16;100.00;99396.26;109274;1251;59025;-81
2023/02/20 05:03:49;;;;;;;12.60;8.40;;;;;;;-0.20;100.00;99391.27;109731;1251;67235;-82
2023/02/20 05:06:15;;;;;;;15.40;9.90;;;;;;;-0.22;100.00;99387.28;109719;1251;60833;-83
2023/02/20 05:08:42;;;;;;;16.40;12.00;;;;;;;-0.24;100.00;99380.33;109648;1251;63746;-82
2023/02/20 05:11:08;;;;;;;20.90;14.40;;;;;;;-0.26;100.00;99380.02;109704;1251;58955;-84
2023/02/20 05:13:35;;;;;;;18.90;13.80;;;;;;;-0.29;100.00;99388.62;109695;1251;59008;-82
2023/02/20 05:16:02;;;;;;;23.40;14.50;;;;;;;-0.29;100.00;99390.72;109651;1251;67239;-83
2023/02/20 05:18:29;;;;;;;23.10;13.90;;;;;;;-0.26;100.00;99388.05;109681;1251;61109;-83
2023/02/20 05:23:41;;;;;;;35.30;18.60;;;;;;;-0.17;100.00;99379.69;109602;1251;59008;-83
2023/02/20 05:26:09;;;;;;;32.20;18.20;;;;;;;-0.13;100.00;99372.97;109585;1251;59026;-83
2023/02/20 05:28:38;;;;;;;40.10;22.40;;;;;;;-0.09;100.00;99367.31;109592;1253;67065;-83
2023/02/20 05:31:05;;;;;;;33.60;20.20;;;;;;;-0.05;100.00;99366.38;109687;1250;60058;-82
2023/02/20 05:33:32;;;;;;;31.90;18.40;;;;;;;-0.01;100.00;99370.84;109622;1251;64747;-82
2023/02/20 05:36:00;;;;;;;28.90;15.70;;;;;;;0.03;100.00;99370.60;109605;1251;58966;-83
2023/02/20 05:38:26;;;;;;;40.00;20.00;;;;;;;0.07;100.00;99372.80;109636;1251;59026;-80
2023/02/20 05:40:53;;;;;;;38.40;22.00;;;;;;;0.12;100.00;99373.76;109628;1251;64587;-81
2023/02/20 05:43:20;;;;;;;40.60;21.30;;;;;;;0.16;100.00;99376.13;109663;1252;59824;-80
2023/02/20 05:45:46;;;;;;;33.50;19.20;;;;;;;0.22;100.00;99375.15;109641;1251;73244;-81
2023/02/20 05:48:14;;;;;;;28.60;16.80;;;;;;;0.27;100.00;99378.90;109746;1251;58934;-82
2023/02/20 05:50:41;;;;;;;35.60;19.10;;;;;;;0.31;100.00;99381.96;109697;1251;58846;-81
2023/02/20 05:53:08;;;;;;;24.70;15.20;;;;;;;0.35;100.00;99382.05;109763;1254;66171;-82
2023/02/20 05:55:34;;;;;;;25.80;15.70;;;;;;;0.39;100.00;99373.77;109655;1250;60213;-81
2023/02/20 05:58:01;;;;;;;27.30;15.90;;;;;;;0.42;100.00;99373.70;109733;1251;65057;-82
2023/02/20 06:00:27;;;;;;;27.10;14.20;;;;;;;0.47;100.00;99375.36;109420;1251;59029;-81
2023/02/20 06:02:54;;;;;;;21.20;12.00;;;;;;;0.52;100.00;99369.16;109620;1251;58969;-83
2023/02/20 06:05:23;;;;;;;25.60;14.30;;;;;;;0.57;100.00;99370.80;109639;1251;66079;-84
2023/02/20 06:07:50;;;;;;;24.00;14.60;;;;;;;0.63;100.00;99378.53;109666;1254;60763;-82
2023/02/20 06:10:18;;;;;;;16.20;10.30;;;;;;;0.68;100.00;99384.90;109604;1251;65370;-83
2023/02/20 06:12:44;;;;;;;18.80;11.60;;;;;;;0.73;100.00;99386.02;109656;1251;59001;-82
2023/02/20 06:15:11;;;;;;;16.10;10.00;;;;;;;0.77;100.00;99387.86;109605;1251;59286;-82
2023/02/20 06:17:38;;;;;;;16.20;9.50;;;;;;;0.80;100.00;99385.52;109618;1251;66067;-82
2023/02/20 06:20:04;;;;;;;17.00;10.90;;;;;;;0.83;100.00;99387.56;109659;1250;59011;-82
2023/02/20 06:22:31;;;;;;;14.20;10.00;;;;;;;0.91;100.00;99393.52;109621;1251;65648;-82
2023/02/20 06:24:58;;;;;;;17.00;10.30;;;;;;;1.01;100.00;99398.38;109620;1251;59008;-82
2023/02/20 06:27:25;;;;;;;16.10;10.30;;;;;;;1.08;100.00;99401.17;109605;1251;59022;-82
2023/02/20 06:29:51;;;;;;;17.00;10.50;;;;;;;1.16;100.00;99401.71;109622;1251;65803;-81
2023/02/20 06:32:18;;;;;;;14.80;11.10;;;;;;;1.25;100.00;99403.80;109657;1251;59718;-82
2023/02/20 06:34:45;;;;;;;16.00;9.20;;;;;;;1.33;100.00;99402.92;109670;1251;65080;-81
2023/02/20 06:37:12;;;;;;;11.00;6.80;;;;;;;1.41;100.00;99400.45;109877;1251;58374;-81
2023/02/20 06:39:41;;;;;;;9.70;5.70;;;;;;;1.49;100.00;99397.27;109745;1251;59066;-81
2023/02/20 06:42:08;;;;;;;8.30;6.20;;;;;;;1.58;100.00;99396.55;109599;1251;66022;-82
2023/02/20 06:44:34;;;;;;;9.90;5.90;;;;;;;1.64;100.00;99396.21;109344;1251;59831;-82
2023/02/20 06:47:01;;;;;;;11.40;6.90;;;;;;;1.72;100.00;99396.20;109632;1251;65242;-80
2023/02/20 06:49:28;;;;;;;13.00;6.80;;;;;;;1.79;100.00;99379.74;109832;1251;58301;-82
2023/02/20 06:51:54;;;;;;;10.00;5.90;;;;;;;1.86;100.00;99377.98;109863;1251;58851;-81
2023/02/20 06:54:21;;;;;;;10.10;6.40;;;;;;;1.93;100.00;99380.77;109656;1251;67001;-82
2023/02/20 06:56:48;;;;;;;7.10;5.00;;;;;;;2.01;100.00;99374.98;109659;1251;60301;-83
2023/02/20 06:59:14;;;;;;;9.00;5.90;;;;;;;2.08;100.00;99375.49;109638;1251;65217;-82
2023/02/20 07:01:42;;;;;;;7.60;5.20;;;;;;;2.15;100.00;99376.53;109592;1254;58994;-82
2023/02/20 07:04:16;;;;;;;8.30;5.10;;;;;;;2.21;100.00;99376.91;109596;1251;58986;-82
2023/02/20 07:06:43;;;;;;;9.50;5.30;;;;;;;2.27;100.00;99370.95;109677;1251;67106;-82
2023/02/20 07:09:10;;;;;;;8.70;5.80;;;;;;;2.34;100.00;99372.69;109334;1251;60171;-83
2023/02/20 07:11:36;;;;;;;9.40;5.80;;;;;;;2.42;100.00;99369.85;109637;1251;65100;-81
2023/02/20 07:14:03;;;;;;;8.70;5.10;;;;;;;2.48;100.00;99368.98;109588;1251;59024;-82
2023/02/20 07:16:31;;;;;;;8.10;4.90;;;;;;;2.55;100.00;99364.39;109255;1250;59011;-82
2023/02/20 07:19:15;;;;;;;6.90;5.10;;;;;;;2.64;100.00;99364.50;109633;1251;65900;-82
2023/02/20 07:22:01;;;;;;;9.60;5.40;;;;;;;2.73;100.00;99366.14;109252;1256;59057;-82
2023/02/20 07:24:49;;;;;;;11.50;6.20;;;;;;;2.89;100.00;99362.36;109294;1255;63932;-82
2023/02/20 07:27:16;;;;;;;6.00;4.50;;;;;;;3.07;100.00;99353.20;109268;1255;59334;-82
2023/02/20 07:29:45;;;;;;;5.60;4.50;;;;;;;3.25;100.00;99343.34;109107;1254;59146;-81
2023/02/20 07:32:13;;;;;;;7.40;4.90;;;;;;;3.38;100.00;99346.27;109252;1255;66212;-82
2023/02/20 07:34:40;;;;;;;8.40;5.10;;;;;;;3.48;100.00;99346.83;109253;1256;59846;-82
2023/02/20 07:37:06;;;;;;;7.10;4.80;;;;;;;3.57;100.00;99341.09;109013;1255;64042;-81
2023/02/20 07:39:33;;;;;;;7.90;5.10;;;;;;;3.64;100.00;99335.39;109259;1254;59196;-82
2023/02/20 07:42:00;;;;;;;5.50;4.20;;;;;;;3.74;100.00;99329.45;109269;1256;59129;-82
2023/02/20 07:44:26;;;;;;;8.00;4.80;;;;;;;3.86;100.00;99326.75;109284;1255;67153;-83
2023/02/20 07:46:53;;;;;;;9.20;5.40;;;;;;;3.95;100.00;99319.95;109290;1255;61170;-79
2023/02/20 07:49:19;;;;;;;8.20;5.40;;;;;;;3.99;100.00;99314.89;109041;1257;64791;-80
2023/02/20 07:51:46;;;;;;;8.10;5.30;;;;;;;4.00;100.00;99305.86;109334;1256;59058;-81
2023/02/20 07:54:13;;;;;;;8.40;5.10;;;;;;;4.03;100.00;99300.67;109502;1251;59060;-81
2023/02/20 07:56:41;;;;;;;9.60;6.00;;;;;;;4.05;100.00;99302.20;109643;1251;67126;-81
2023/02/20 07:59:08;;;;;;;6.30;5.60;;;;;;;4.06;100.00;99298.80;109656;1251;59766;-81
2023/02/20 08:01:35;;;;;;;9.00;5.40;;;;;;;4.10;100.00;99293.23;109618;1251;62395;-82
2023/02/20 08:04:02;;;;;;;10.60;6.50;;;;;;;4.15;100.00;99294.77;109636;1251;59418;-80
2023/02/20 08:06:29;;;;;;;8.60;5.80;;;;;;;4.20;100.00;99291.12;109705;1251;58943;-81
2023/02/20 08:08:56;;;;;;;9.90;6.10;;;;;;;4.23;100.00;99291.17;109627;1251;66200;-81
2023/02/20 08:11:23;;;;;;;8.00;5.30;;;;;;;4.29;100.00;99282.88;109716;1251;60199;-81
2023/02/20 08:13:54;;;;;;;8.30;5.80;;;;;;;4.37;100.00;99283.96;109625;1251;63884;-82
2023/02/20 08:16:21;;;;;;;10.60;6.70;;;;;;;4.46;100.00;99280.66;109573;1250;58948;-81
2023/02/20 08:18:48;;;;;;;11.30;6.70;;;;;;;4.55;100.00;99277.66;109577;1251;59119;-81
2023/02/20 08:21:15;;;;;;;8.70;6.10;;;;;;;4.58;100.00;99287.94;109613;1250;65957;-82
2023/02/20 08:23:41;;;;;;;9.70;5.80;;;;;;;4.59;100.00;99292.98;109608;1251;61002;-83
2023/02/20 08:26:08;;;;;;;9.40;5.90;;;;;;;4.60;100.00;99291.03;109585;1251;64817;-81
2023/02/20 08:28:35;;;;;;;8.40;5.60;;;;;;;4.61;100.00;99293.80;109408;1251;59076;-82
2023/02/20 08:31:01;;;;;;;10.10;5.60;;;;;;;4.64;100.00;99293.16;109649;1251;58934;-83
2023/02/20 08:33:28;;;;;;;8.50;5.90;;;;;;;4.66;100.00;99298.91;109623;1251;66018;-79
2023/02/20 08:35:56;;;;;;;8.60;5.90;;;;;;;4.68;100.00;99299.36;109661;1251;59867;-80
2023/02/20 08:38:33;;;;;;;8.00;6.00;;;;;;;4.72;100.00;99296.02;109444;1251;64260;-79
2023/02/20 08:41:03;;;;;;;8.90;5.90;;;;;;;4.77;100.00;99287.20;109581;1251;58956;-81
2023/02/20 08:43:30;;;;;;;6.80;5.50;;;;;;;4.83;100.00;99285.21;109658;1251;59035;-82
2023/02/20 08:45:57;;;;;;;8.40;5.90;;;;;;;4.89;100.00;99276.70;109634;1251;65977;-81
2023/02/20 08:48:23;;;;;;;7.10;5.40;;;;;;;4.96;100.00;99271.52;109655;1251;59501;-81
2023/02/20 08:50:50;;;;;;;7.50;5.10;;;;;;;5.04;100.00;99262.21;109595;1251;64116;-81
2023/02/20 08:53:17;;;;;;;6.60;4.80;;;;;;;5.14;100.00;99261.12;109611;1251;59047;-81
2023/02/20 08:55:44;;;;;;;7.50;4.70;;;;;;;5.20;100.00;99259.42;109601;1251;58867;-81
2023/02/20 08:58:11;;;;;;;6.10;4.30;;;;;;;5.24;100.00;99260.20;109626;1251;67069;-82
2023/02/20 09:00:38;;;;;;;7.30;5.10;;;;;;;5.24;100.00;99255.59;109395;1251;60447;-82
2023/02/20 09:03:07;;;;;;;6.70;4.00;;;;;;;5.25;100.00;99251.16;109659;1250;65091;-81
2023/02/20 09:05:35;;;;;;;;;;;;;;;5.30;100.00;99246.91;109648;1251;58943;-79
2023/02/20 09:08:02;;;;;;;8.40;5.10;;;;;;;5.39;100.00;99237.55;109612;1251;59816;-80
2023/02/20 09:10:30;;;;;;;5.80;4.20;;;;;;;5.54;100.00;99230.89;109650;1251;67045;-80
2023/02/20 09:12:57;;;;;;;6.60;4.90;;;;;;;5.71;100.00;99227.35;109643;1251;60107;-81
2023/02/20 09:15:25;;;;;;;6.50;4.20;;;;;;;5.86;100.00;99222.33;109544;1251;146413;-81
2023/02/20 09:17:53;;;;;;;5.60;4.00;;;;;;;5.95;100.00;99219.43;109523;1251;59010;-79
2023/02/20 09:20:21;;;;;;;6.40;4.00;;;;;;;6.01;100.00;99214.98;109668;1251;59048;-80
2023/02/20 09:22:50;;;;;;;8.20;4.50;;;;;;;6.03;100.00;99207.47;109581;1251;66083;-81
2023/02/20 09:25:18;;;;;;;6.30;3.70;;;;;;;6.03;100.00;99193.72;109617;1251;61084;-81
2023/02/20 09:27:44;;;;;;;5.40;4.00;;;;;;;6.06;100.00;99187.40;109661;1251;65100;-81
2023/02/20 09:30:18;;;;;;;7.10;4.00;;;;;;;6.10;100.00;99185.08;109543;1251;59064;-81
2023/02/20 09:32:46;;;;;;;5.40;3.70;;;;;;;6.13;100.00;99186.73;109373;1251;59127;-80
2023/02/20 09:35:32;;;;;;;5.60;4.00;;;;;;;6.14;100.00;99180.86;109640;1251;65968;-81
2023/02/20 09:38:00;;;;;;;5.70;3.70;;;;;;;6.11;100.00;99177.12;109325;1251;59035;-80
2023/02/20 09:40:30;;;;;;;6.00;4.00;;;;;;;6.07;100.00;99175.70;109593;1251;65319;-81
2023/02/20 09:43:14;;;;;;;7.40;4.10;;;;;;;6.07;100.00;99173.77;109516;1251;58976;-81
2023/02/20 09:45:48;;;;;;;7.30;3.60;;;;;;;6.15;100.00;99174.27;109645;1254;59811;-81
2023/02/20 09:48:30;;;;;;;6.00;3.80;;;;;;;6.24;100.00;99161.54;109629;1251;67122;-81
2023/02/20 09:51:02;;;;;;;5.50;3.80;;;;;;;6.37;100.00;99162.48;109692;1250;60738;-81
2023/02/20 09:53:38;;;;;;;5.10;3.50;;;;;;;6.51;100.00;99155.11;109639;1251;64731;-81
2023/02/20 09:56:11;;;;;;;3.30;2.90;;;;;;;6.59;100.00;99154.91;109490;1251;59020;-82
2023/02/20 09:58:51;;;;;;;4.70;3.20;;;;;;;6.61;100.00;99156.42;109590;1251;58953;-81
2023/02/20 10:01:20;;;;;;;;;;;;;;;6.60;100.00;99149.40;109631;1251;66904;-81
2023/02/20 10:03:53;;;;;;;3.40;2.90;;;;;;;6.64;100.00;99144.43;109600;1251;59738;-81
2023/02/20 10:06:22;;;;;;;5.80;3.80;;;;;;;6.68;100.00;99141.09;109631;1251;65047;-81
2023/02/20 10:08:50;;;;;;;6.00;3.60;;;;;;;6.73;100.00;99133.58;109552;1251;59024;-81
2023/02/20 10:11:35;;;;;;;6.70;4.10;;;;;;;6.75;100.00;99129.92;109642;1251;58957;-81
2023/02/20 10:14:24;;;;;;;6.60;3.70;;;;;;;6.73;100.00;99132.86;109614;1251;66706;-81
2023/02/20 10:17:02;;;;;;;6.60;3.90;;;;;;;6.69;100.00;99129.73;109336;1251;61094;-81
2023/02/20 10:19:41;;;;;;;5.80;3.50;;;;;;;6.67;100.00;99121.17;109652;1251;65416;-79
2023/02/20 10:22:46;;;;;;;6.60;3.40;;;;;;;6.66;100.00;99121.21;109575;1251;58926;-81
2023/02/20 10:25:25;;;;;;;3.70;3.20;;;;;;;6.65;100.00;99123.71;109599;1251;59000;-80
2023/02/20 10:27:59;;;;;;;5.00;3.20;;;;;;;6.65;100.00;99119.52;109620;1251;64619;-79
2023/02/20 10:30:29;;;;;;;5.30;3.50;;;;;;;6.69;100.00;99108.38;109350;1251;59825;-79
2023/02/20 10:33:10;;;;;;;5.90;3.30;;;;;;;6.74;100.00;99105.27;109616;1251;63956;-80
2023/02/20 10:35:43;;;;;;;5.10;3.10;;;;;;;6.79;100.00;99100.63;109600;1251;59056;-81
2023/02/20 10:38:12;;;;;;;4.40;2.70;;;;;;;6.84;100.00;99087.13;109592;1251;59337;-80
2023/02/20 10:40:56;;;;;;;3.70;3.00;;;;;;;6.90;100.00;99082.79;109649;1251;67162;-81
2023/02/20 10:43:44;;;;;;;4.70;3.20;;;;;;;6.92;100.00;99072.73;109652;1251;60146;-82
2023/02/20 10:46:19;;;;;;;4.70;2.50;;;;;;;6.94;100.00;99071.76;109614;1251;64760;-80
2023/02/20 10:48:46;;;;;;;5.90;2.80;;;;;;;6.94;100.00;99059.08;109620;1255;58982;-80
2023/02/20 10:51:43;;;;;;;4.00;2.90;;;;;;;6.95;100.00;99047.17;109605;1251;59094;-81
2023/02/20 10:54:36;;;;;;;4.00;3.10;;;;;;;7.03;100.00;99044.45;109615;1251;66812;-81
2023/02/20 10:57:12;;;;;;;5.20;2.80;;;;;;;7.13;100.00;99039.20;109015;1260;61868;-81
2023/02/20 10:59:48;;;;;;;4.00;3.10;;;;;;;7.18;100.00;99033.61;108990;1257;64202;-80
2023/02/20 11:02:21;;;;;;;3.30;2.80;;;;;;;7.24;100.00;99029.27;108960;1260;59077;-80
2023/02/20 11:05:08;;;;;;;4.10;3.30;;;;;;;7.37;100.00;99016.37;109025;1258;59095;-80
2023/02/20 11:07:34;;;;;;;5.30;3.80;;;;;;;7.54;100.00;99004.16;108855;1260;65837;-80
2023/02/20 11:10:01;;;;;;;4.60;3.70;;;;;;;7.68;100.00;98995.61;109016;1258;61228;-80
2023/02/20 11:12:47;;;;;;;4.00;3.50;;;;;;;7.83;100.00;98984.17;109022;1260;64818;-80
2023/02/20 11:15:18;;;;;;;5.40;3.60;;;;;;;7.99;100.00;98967.65;109007;1260;58956;-79
2023/02/20 11:17:50;;;;;;;4.50;3.80;;;;;;;8.12;100.00;98960.40;109038;1258;59053;-80
2023/02/20 11:20:31;;;;;;;5.20;3.80;;;;;;;8.21;100.00;98965.17;108933;1260;65789;-79
2023/02/20 11:23:02;;;;;;;6.50;4.40;;;;;;;8.26;100.00;98970.39;109027;1259;60963;-79
2023/02/20 11:25:34;;;;;;;4.80;4.20;;;;;;;8.25;100.00;98958.02;109033;1259;65278;-79
2023/02/20 11:28:21;;;;;;;4.80;4.10;;;;;;;8.24;100.00;98954.58;108859;1263;58893;-79
2023/02/20 11:30:57;;;;;;;5.20;4.80;;;;;;;8.23;100.00;98956.41;109014;1260;59981;-80
2023/02/20 11:33:28;;;;;;;6.50;5.90;;;;;;;8.21;100.00;98947.12;109104;1251;67100;-80
2023/02/20 11:35:57;;;;;;;5.40;4.80;;;;;;;8.21;100.00;98940.94;109680;1251;59774;-80
2023/02/20 11:38:32;;;;;;;6.80;5.20;;;;;;;8.27;100.00;98941.83;109377;1251;64067;-80
2023/02/20 11:41:04;;;;;;;6.10;5.60;;;;;;;8.34;100.00;98937.48;109494;1251;58952;-79
2023/02/20 11:43:40;;;;;;;6.60;5.70;;;;;;;8.42;100.00;98933.91;109417;1251;59118;-79
2023/02/20 11:46:08;;;;;;;6.70;6.00;;;;;;;8.49;100.00;98930.45;109606;1250;66132;-79
2023/02/20 11:48:35;;;;;;;6.40;5.60;;;;;;;8.60;100.00;98918.34;109656;1251;60072;-80
2023/02/20 11:51:02;;;;;;;7.60;6.80;;;;;;;8.58;100.00;98906.91;109542;1251;64316;-81
2023/02/20 11:53:31;;;;;;;6.00;5.40;;;;;;;8.46;100.00;98903.71;109366;1251;58987;-79